createdAt,value
2022-09-03T00:02:53.634Z,13.39
2022-09-03T00:06:06.512Z,13.27
2022-09-03T00:08:44.645Z,13.11
2022-09-03T00:11:23.605Z,13.16
2022-09-03T00:14:07.787Z,13.13
2022-09-03T00:17:16.839Z,13.08
2022-09-03T00:20:10.771Z,13.09
2022-09-03T00:22:47.030Z,12.98
2022-09-03T00:25:29.823Z,13.06
2022-09-03T00:28:03.005Z,13.02
2022-09-03T00:30:32.611Z,12.82
2022-09-03T00:33:10.791Z,12.94
2022-09-03T00:36:00.176Z,13.00
2022-09-03T00:38:29.668Z,13.01
2022-09-03T00:41:14.482Z,12.86
2022-09-03T00:44:11.188Z,12.92
2022-09-03T00:46:53.211Z,12.80
2022-09-03T00:49:55.171Z,12.82
2022-09-03T00:52:38.346Z,12.74
2022-09-03T00:55:11.591Z,12.73
2022-09-03T00:58:22.187Z,12.75
2022-09-03T01:00:52.881Z,12.75
2022-09-03T01:03:53.462Z,12.72
2022-09-03T01:06:59.952Z,12.69
2022-09-03T01:10:08.961Z,12.74
2022-09-03T01:13:11.869Z,12.87
2022-09-03T01:16:28.304Z,12.77
2022-09-03T01:19:38.938Z,12.83
2022-09-03T01:22:21.043Z,12.71
2022-09-03T01:25:08.145Z,12.67
2022-09-03T01:28:19.253Z,12.69
2022-09-03T01:31:02.909Z,12.64
2022-09-03T01:33:57.425Z,12.66
2022-09-03T01:36:57.916Z,12.65
2022-09-03T01:40:19.974Z,12.57
2022-09-03T01:43:44.720Z,12.64
2022-09-03T01:46:34.637Z,12.40
2022-09-03T01:49:31.328Z,12.35
2022-09-03T01:52:13.741Z,12.33
2022-09-03T01:54:46.434Z,12.31
2022-09-03T01:57:35.412Z,12.34
2022-09-03T02:00:15.662Z,12.26
2022-09-03T02:02:49.107Z,12.23
2022-09-03T02:05:18.473Z,12.16
2022-09-03T02:08:07.929Z,12.08
2022-09-03T02:10:41.207Z,12.09
2022-09-03T02:13:14.076Z,12.05
2022-09-03T02:15:46.362Z,12.05
2022-09-03T02:18:27.183Z,12.03
2022-09-03T02:20:56.051Z,12.09
2022-09-03T02:23:27.709Z,12.08
2022-09-03T02:26:03.294Z,12.03
2022-09-03T02:28:32.821Z,11.97
2022-09-03T02:31:00.203Z,12.01
2022-09-03T02:33:28.522Z,11.97
2022-09-03T02:35:56.116Z,11.92
2022-09-03T02:38:26.577Z,11.84
2022-09-03T02:40:54.597Z,11.90
2022-09-03T02:44:08.608Z,11.83
2022-09-03T02:46:52.126Z,11.81
2022-09-03T02:49:19.927Z,11.82
2022-09-03T02:51:47.112Z,11.79
2022-09-03T02:54:18.927Z,11.79
2022-09-03T02:56:49.871Z,11.82
2022-09-03T02:59:18.107Z,11.91
2022-09-03T03:01:46.459Z,11.84
2022-09-03T03:04:14.648Z,11.95
2022-09-03T03:06:41.943Z,11.94
2022-09-03T03:09:09.309Z,11.99
2022-09-03T03:11:37.142Z,11.91
2022-09-03T03:14:04.601Z,11.78
2022-09-03T03:16:31.945Z,11.90
2022-09-03T03:19:00.292Z,11.80
2022-09-03T03:21:28.049Z,11.81
2022-09-03T03:23:55.506Z,11.76
2022-09-03T03:26:24.327Z,11.78
2022-09-03T03:28:58.242Z,11.79
2022-09-03T03:31:27.560Z,11.78
2022-09-03T03:33:58.427Z,11.71
2022-09-03T03:36:31.338Z,11.74
2022-09-03T03:39:00.414Z,11.78
2022-09-03T03:41:34.761Z,11.65
2022-09-03T03:44:06.420Z,11.63
2022-09-03T03:46:38.182Z,11.60
2022-09-03T03:49:07.748Z,11.74
2022-09-03T03:51:37.380Z,11.75
2022-09-03T03:54:05.898Z,11.71
2022-09-03T03:56:34.938Z,11.65
2022-09-03T03:59:02.680Z,11.58
2022-09-03T04:01:30.341Z,11.50
2022-09-03T04:04:00.389Z,11.53
2022-09-03T04:06:28.908Z,11.56
2022-09-03T04:08:56.287Z,11.59
2022-09-03T04:11:25.359Z,11.63
2022-09-03T04:13:53.927Z,11.70
2022-09-03T04:16:25.786Z,11.63
2022-09-03T04:18:55.408Z,11.66
2022-09-03T04:21:26.670Z,11.68
2022-09-03T04:23:57.704Z,11.73
2022-09-03T04:26:34.255Z,11.78
2022-09-03T04:29:08.933Z,11.70
2022-09-03T04:31:38.797Z,11.73
2022-09-03T04:34:07.485Z,11.76
2022-09-03T04:36:35.266Z,11.79
2022-09-03T04:39:02.912Z,11.87
2022-09-03T04:41:32.002Z,11.87
2022-09-03T04:44:00.373Z,11.87
2022-09-03T04:46:33.712Z,11.87
2022-09-03T04:49:02.535Z,11.89
2022-09-03T04:51:31.781Z,11.91
2022-09-03T04:54:02.437Z,12.02
2022-09-03T04:56:33.705Z,12.09
2022-09-03T04:59:09.754Z,12.19
2022-09-03T05:01:40.681Z,12.27
2022-09-03T05:04:09.127Z,12.25
2022-09-03T05:06:37.676Z,12.34
2022-09-03T05:09:06.777Z,12.41
2022-09-03T05:11:34.513Z,12.53
2022-09-03T05:14:02.039Z,12.60
2022-09-03T05:16:31.139Z,12.76
2022-09-03T05:19:01.276Z,12.83
2022-09-03T05:21:30.123Z,12.93
2022-09-03T05:23:59.988Z,13.01
2022-09-03T05:26:31.583Z,13.05
2022-09-03T05:29:01.945Z,13.10
2022-09-03T05:31:32.137Z,13.13
2022-09-03T05:34:03.483Z,13.18
2022-09-03T05:36:35.695Z,13.16
2022-09-03T05:39:05.611Z,13.23
2022-09-03T05:41:34.252Z,13.18
2022-09-03T05:44:02.357Z,13.37
2022-09-03T05:46:38.414Z,13.40
2022-09-03T05:49:08.113Z,13.48
2022-09-03T05:51:37.536Z,13.56
2022-09-03T05:54:05.307Z,13.64
2022-09-03T05:56:35.794Z,13.72
2022-09-03T05:59:09.224Z,13.78
2022-09-03T06:01:40.903Z,13.88
2022-09-03T06:04:15.589Z,14.02
2022-09-03T06:06:45.542Z,14.11
2022-09-03T06:09:23.215Z,14.24
2022-09-03T06:11:52.544Z,14.33
2022-09-03T06:14:20.855Z,14.39
2022-09-03T06:16:50.190Z,14.60
2022-09-03T06:19:18.021Z,14.66
2022-09-03T06:21:47.046Z,14.93
2022-09-03T06:24:18.897Z,15.08
2022-09-03T06:26:48.204Z,15.32
2022-09-03T06:29:16.210Z,15.74
2022-09-03T06:31:43.455Z,18.18
2022-09-03T06:34:10.922Z,19.75
2022-09-03T06:36:41.449Z,20.83
2022-09-03T06:39:08.811Z,21.93
2022-09-03T06:41:36.308Z,23.09
2022-09-03T06:44:11.331Z,24.31
2022-09-03T06:46:42.763Z,25.37
2022-09-03T06:49:11.920Z,26.42
2022-09-03T06:51:40.784Z,27.72
2022-09-03T06:54:11.250Z,27.77
2022-09-03T06:56:41.521Z,28.69
2022-09-03T06:59:14.962Z,30.02
2022-09-03T07:01:46.317Z,30.96
2022-09-03T07:04:20.410Z,31.72
2022-09-03T07:06:48.092Z,32.22
2022-09-03T07:09:18.380Z,29.72
2022-09-03T07:11:48.078Z,26.97
2022-09-03T07:14:18.978Z,26.12
2022-09-03T07:16:50.669Z,27.16
2022-09-03T07:19:18.743Z,28.81
2022-09-03T07:21:50.059Z,30.24
2022-09-03T07:24:22.407Z,33.35
2022-09-03T07:26:50.321Z,32.83
2022-09-03T07:29:20.819Z,32.47
2022-09-03T07:31:52.104Z,32.76
2022-09-03T07:34:25.305Z,29.79
2022-09-03T07:36:53.430Z,28.14
2022-09-03T07:39:21.248Z,28.66
2022-09-03T07:41:48.902Z,33.03
2022-09-03T07:44:22.961Z,33.15
2022-09-03T07:46:51.363Z,33.37
2022-09-03T07:49:21.235Z,38.18
2022-09-03T07:51:50.947Z,39.66
2022-09-03T07:54:18.211Z,40.28
2022-09-03T07:56:45.667Z,36.63
2022-09-03T07:59:13.045Z,37.77
2022-09-03T08:01:41.798Z,35.59
2022-09-03T08:04:11.015Z,33.00
2022-09-03T08:06:39.702Z,31.91
2022-09-03T08:09:11.670Z,33.49
2022-09-03T08:11:43.442Z,35.07
2022-09-03T08:14:13.908Z,39.00
2022-09-03T08:16:49.372Z,38.36
2022-09-03T08:19:18.634Z,36.51
2022-09-03T08:21:46.743Z,37.31
2022-09-03T08:24:17.291Z,33.38
2022-09-03T08:26:50.613Z,30.97
2022-09-03T08:29:21.309Z,31.60
2022-09-03T08:31:49.652Z,38.51
2022-09-03T08:34:18.031Z,43.75
2022-09-03T08:36:47.365Z,45.52
2022-09-03T08:39:14.788Z,48.18
2022-09-03T08:41:49.343Z,49.46
2022-09-03T08:44:22.487Z,47.90
2022-09-03T08:47:14.471Z,45.63
2022-09-03T08:50:27.735Z,48.87
2022-09-03T08:53:07.675Z,49.65
2022-09-03T08:55:53.898Z,52.65
2022-09-03T08:58:33.117Z,49.14
2022-09-03T09:01:35.959Z,43.62
2022-09-03T09:04:10.965Z,43.02
2022-09-03T09:07:08.357Z,38.27
2022-09-03T09:09:50.207Z,38.91
2022-09-03T09:12:55.366Z,35.49
2022-09-03T09:15:46.009Z,34.93
2022-09-03T09:18:51.377Z,32.08
2022-09-03T09:21:32.391Z,30.13
2022-09-03T09:24:12.162Z,29.83
2022-09-03T09:26:41.872Z,29.35
2022-09-03T09:29:12.297Z,29.16
2022-09-03T09:31:45.250Z,29.01
2022-09-03T09:34:13.041Z,28.18
2022-09-03T09:36:53.329Z,27.46
2022-09-03T09:39:22.096Z,26.59
2022-09-03T09:42:11.193Z,26.19
2022-09-03T09:44:42.528Z,25.85
2022-09-03T09:47:24.073Z,25.34
2022-09-03T09:50:01.116Z,25.21
2022-09-03T09:52:31.631Z,25.21
2022-09-03T09:55:17.709Z,25.36
2022-09-03T09:57:45.186Z,25.44
2022-09-03T10:00:17.734Z,25.06
2022-09-03T10:02:56.974Z,24.79
2022-09-03T10:05:31.460Z,24.51
2022-09-03T10:08:01.927Z,24.19
2022-09-03T10:10:37.878Z,24.01
2022-09-03T10:13:29.635Z,23.64
2022-09-03T10:16:22.018Z,23.44
2022-09-03T10:19:17.546Z,23.54
2022-09-03T10:22:20.282Z,23.22
2022-09-03T10:25:03.430Z,23.19
2022-09-03T10:27:32.148Z,22.97
2022-09-03T10:30:00.813Z,23.26
2022-09-03T10:32:42.754Z,23.12
2022-09-03T10:35:32.676Z,23.11
2022-09-03T10:38:27.160Z,22.97
2022-09-03T10:41:21.422Z,23.09
2022-09-03T10:44:06.888Z,23.10
2022-09-03T10:47:26.101Z,23.09
2022-09-03T10:50:16.350Z,23.31
2022-09-03T10:53:22.611Z,23.74
2022-09-03T10:56:17.977Z,23.57
2022-09-03T10:59:25.052Z,24.01
2022-09-03T11:02:11.402Z,23.78
2022-09-03T11:05:15.934Z,23.63
2022-09-03T11:08:07.060Z,24.11
2022-09-03T11:10:42.449Z,24.56
2022-09-03T11:13:22.350Z,24.69
2022-09-03T11:16:06.629Z,24.25
2022-09-03T11:18:49.270Z,24.63
2022-09-03T11:21:24.192Z,25.32
2022-09-03T11:24:14.751Z,26.58
2022-09-03T11:27:15.877Z,27.46
2022-09-03T11:29:58.483Z,27.38
2022-09-03T11:32:55.736Z,26.91
2022-09-03T11:35:28.322Z,26.60
2022-09-03T11:38:21.135Z,26.05
2022-09-03T11:41:27.202Z,25.82
2022-09-03T11:43:55.711Z,26.49
2022-09-03T11:46:23.327Z,27.39
2022-09-03T11:49:25.441Z,26.99
2022-09-03T11:52:04.681Z,26.61
2022-09-03T11:54:45.838Z,25.88
2022-09-03T11:57:27.315Z,25.09
2022-09-03T12:00:06.924Z,24.71
2022-09-03T12:02:39.212Z,24.25
2022-09-03T12:05:42.670Z,24.12
2022-09-03T12:08:35.626Z,23.71
2022-09-03T12:11:20.664Z,23.24
2022-09-03T12:14:18.654Z,23.06
2022-09-03T12:17:18.386Z,22.64
2022-09-03T12:19:58.807Z,22.50
2022-09-03T12:22:31.406Z,22.43
2022-09-03T12:25:15.395Z,22.67
2022-09-03T12:27:46.895Z,22.87
2022-09-03T12:30:23.525Z,23.28
2022-09-03T12:32:52.421Z,23.66
2022-09-03T12:38:25.076Z,23.68
2022-09-03T12:43:42.487Z,23.33
2022-09-03T12:46:16.176Z,23.24
2022-09-03T12:51:56.346Z,23.70
2022-09-03T12:54:27.056Z,24.61
2022-09-03T12:56:59.794Z,25.24
2022-09-03T12:59:37.137Z,25.82
2022-09-03T13:02:27.869Z,26.39
2022-09-03T13:04:56.691Z,27.02
2022-09-03T13:07:37.399Z,29.43
2022-09-03T13:10:16.600Z,32.32
2022-09-03T13:12:52.543Z,31.87
2022-09-03T13:15:24.358Z,32.27
2022-09-03T13:18:27.733Z,35.41
2022-09-03T13:21:21.350Z,38.92
2022-09-03T13:24:27.552Z,36.29
2022-09-03T13:27:08.895Z,34.11
2022-09-03T13:30:08.265Z,32.19
2022-09-03T13:33:20.071Z,32.77
2022-09-03T13:36:09.821Z,32.10
2022-09-03T13:38:59.145Z,31.62
2022-09-03T13:42:18.413Z,30.28
2022-09-03T13:45:14.765Z,29.77
2022-09-03T13:48:42.913Z,28.93
2022-09-03T13:51:32.492Z,28.66
2022-09-03T13:54:48.101Z,33.15
2022-09-03T13:57:45.973Z,37.96
2022-09-03T14:00:28.759Z,39.95
2022-09-03T14:03:19.118Z,41.36
2022-09-03T14:06:08.852Z,43.72
2022-09-03T14:09:43.382Z,45.46
2022-09-03T14:13:23.227Z,46.43
2022-09-03T14:16:20.746Z,45.61
2022-09-03T14:19:08.692Z,45.85
2022-09-03T14:22:01.691Z,42.95
2022-09-03T14:24:52.755Z,40.43
2022-09-03T14:27:29.684Z,39.10
2022-09-03T14:30:17.291Z,38.23
2022-09-03T14:33:03.433Z,36.59
2022-09-03T14:35:41.252Z,34.35
2022-09-03T14:38:41.333Z,32.46
2022-09-03T14:41:16.065Z,30.90
2022-09-03T14:44:04.622Z,29.45
2022-09-03T14:47:01.649Z,28.51
2022-09-03T14:49:40.499Z,27.96
2022-09-03T14:52:46.527Z,27.50
2022-09-03T14:55:42.696Z,27.02
2022-09-03T14:59:09.845Z,26.59
2022-09-03T15:01:39.383Z,26.27
2022-09-03T15:04:51.737Z,25.70
2022-09-03T15:07:42.076Z,25.67
2022-09-03T15:10:26.573Z,25.68
2022-09-03T15:13:19.032Z,25.63
2022-09-03T15:16:01.590Z,25.58
2022-09-03T15:18:43.770Z,25.49
2022-09-03T15:21:29.350Z,25.14
2022-09-03T15:24:16.310Z,24.66
2022-09-03T15:26:46.698Z,24.50
2022-09-03T15:29:25.548Z,24.38
2022-09-03T15:32:42.530Z,24.10
2022-09-03T15:35:42.897Z,24.06
2022-09-03T15:38:32.236Z,24.16
2022-09-03T15:41:17.719Z,24.12
2022-09-03T15:43:51.322Z,23.94
2022-09-03T15:46:46.514Z,23.83
2022-09-03T15:49:40.947Z,23.69
2022-09-03T15:52:33.598Z,23.40
2022-09-03T15:55:23.916Z,23.01
2022-09-03T15:58:12.018Z,22.75
2022-09-03T16:00:45.574Z,22.35
2022-09-03T16:03:21.760Z,22.22
2022-09-03T16:06:39.015Z,22.03
2022-09-03T16:09:22.503Z,21.99
2022-09-03T16:12:17.076Z,21.99
2022-09-03T16:15:11.791Z,21.86
2022-09-03T16:18:09.641Z,21.79
2022-09-03T16:21:12.454Z,21.87
2022-09-03T16:23:56.777Z,21.73
2022-09-03T16:26:36.341Z,21.67
2022-09-03T16:29:19.086Z,21.69
2022-09-03T16:31:56.121Z,21.56
2022-09-03T16:35:24.198Z,21.37
2022-09-03T16:38:26.139Z,21.21
2022-09-03T16:41:36.571Z,21.04
2022-09-03T16:44:46.106Z,20.97
2022-09-03T16:47:46.318Z,20.91
2022-09-03T16:50:34.853Z,20.84
2022-09-03T16:53:28.880Z,20.51
2022-09-03T16:56:55.747Z,20.27
2022-09-03T16:59:47.938Z,20.14
2022-09-03T17:02:47.655Z,20.12
2022-09-03T17:06:03.485Z,19.82
2022-09-03T17:08:55.431Z,19.76
2022-09-03T17:12:03.629Z,19.72
2022-09-03T17:14:52.152Z,19.59
2022-09-03T17:17:27.876Z,19.31
2022-09-03T17:20:10.135Z,19.18
2022-09-03T17:23:14.575Z,19.11
2022-09-03T17:26:21.348Z,18.87
2022-09-03T17:30:00.435Z,18.68
2022-09-03T17:33:05.111Z,18.46
2022-09-03T17:36:11.383Z,18.37
2022-09-03T17:39:15.872Z,18.36
2022-09-03T17:42:05.119Z,18.28
2022-09-03T17:44:51.525Z,18.13
2022-09-03T17:48:06.736Z,18.06
2022-09-03T17:51:01.428Z,17.85
2022-09-03T17:53:47.081Z,17.80
2022-09-03T17:56:35.525Z,17.70
2022-09-03T17:59:46.402Z,17.58
2022-09-03T18:02:36.461Z,17.48
2022-09-03T18:05:29.689Z,17.38
2022-09-03T18:08:11.898Z,17.28
2022-09-03T18:11:11.712Z,17.19
2022-09-03T18:14:09.543Z,17.14
2022-09-03T18:17:07.842Z,17.10
2022-09-03T18:20:18.923Z,17.03
2022-09-03T18:23:30.405Z,16.93
2022-09-03T18:26:23.910Z,16.85
2022-09-03T18:29:21.445Z,16.76
2022-09-03T18:32:07.266Z,16.74
2022-09-03T18:34:55.503Z,16.76
2022-09-03T18:37:45.492Z,16.76
2022-09-03T18:40:47.579Z,16.72
2022-09-03T18:44:15.293Z,16.65
2022-09-03T18:51:00.155Z,16.60
2022-09-03T18:54:04.413Z,16.61
2022-09-03T18:57:11.840Z,16.54
2022-09-03T19:00:30.075Z,16.53
2022-09-03T19:04:19.066Z,16.42
2022-09-03T19:07:40.433Z,16.33
2022-09-03T19:10:43.583Z,16.21
2022-09-03T19:13:51.918Z,16.26
2022-09-03T19:17:20.554Z,16.24
2022-09-03T19:20:41.178Z,16.22
2022-09-03T19:23:26.877Z,16.14
2022-09-03T19:26:21.623Z,16.16
2022-09-03T19:29:20.931Z,16.13
2022-09-03T19:32:24.834Z,16.18
2022-09-03T19:35:27.503Z,16.24
2022-09-03T19:38:48.015Z,16.17
2022-09-03T19:41:52.285Z,16.12
2022-09-03T19:44:58.632Z,16.18
2022-09-03T19:48:30.134Z,16.22
2022-09-03T19:51:30.247Z,16.25
2022-09-03T19:54:21.425Z,16.27
2022-09-03T19:57:10.166Z,16.24
2022-09-03T19:59:59.977Z,16.24
2022-09-03T20:02:46.210Z,16.17
2022-09-03T20:05:41.109Z,16.08
2022-09-03T20:08:28.739Z,16.03
2022-09-03T20:10:59.150Z,16.06
2022-09-03T20:13:26.813Z,16.05
2022-09-03T20:16:22.147Z,16.01
2022-09-03T20:19:26.673Z,15.96
2022-09-03T20:22:19.079Z,15.95
2022-09-03T20:25:27.275Z,15.98
2022-09-03T20:28:11.005Z,16.04
2022-09-03T20:30:56.526Z,15.98
2022-09-03T20:33:49.615Z,15.91
2022-09-03T20:36:49.892Z,15.94
2022-09-03T20:40:26.945Z,15.94
2022-09-03T20:43:29.239Z,15.94
2022-09-03T20:46:27.875Z,15.83
2022-09-03T20:49:38.211Z,15.86
2022-09-03T20:52:35.245Z,15.78
2022-09-03T20:55:21.278Z,15.68
2022-09-03T20:58:27.419Z,15.64
2022-09-03T21:01:22.774Z,15.65
2022-09-03T21:04:36.693Z,15.65
2022-09-03T21:07:55.583Z,15.56
2022-09-03T21:10:32.044Z,15.56
2022-09-03T21:13:16.109Z,15.51
2022-09-03T21:15:57.482Z,15.50
2022-09-03T21:18:42.495Z,15.49
2022-09-03T21:21:23.926Z,15.38
2022-09-03T21:24:07.917Z,15.42
2022-09-03T21:26:46.187Z,15.41
2022-09-03T21:29:28.560Z,15.44
2022-09-03T21:31:58.509Z,15.46
2022-09-03T21:34:41.098Z,15.49
2022-09-03T21:37:13.448Z,15.43
2022-09-03T21:39:54.714Z,15.42
2022-09-03T21:42:36.633Z,15.32
2022-09-03T21:45:17.285Z,15.24
2022-09-03T21:47:58.374Z,15.26
2022-09-03T21:50:39.222Z,15.20
2022-09-03T21:53:22.675Z,15.24
2022-09-03T21:56:30.921Z,15.10
2022-09-03T21:59:26.117Z,15.11
2022-09-03T22:02:08.955Z,15.14
2022-09-03T22:04:36.381Z,15.15
2022-09-03T22:07:27.954Z,15.13
2022-09-03T22:10:08.172Z,15.13
2022-09-03T22:13:09.292Z,15.11
2022-09-03T22:15:38.312Z,15.16
2022-09-03T22:18:28.823Z,15.10
2022-09-03T22:21:11.468Z,15.13
2022-09-03T22:24:22.993Z,15.15
2022-09-03T22:27:37.881Z,15.11
2022-09-03T22:30:21.423Z,15.10
2022-09-03T22:33:15.605Z,15.09
2022-09-03T22:36:01.307Z,15.16
2022-09-03T22:38:40.636Z,15.14
2022-09-03T22:41:53.216Z,15.03
2022-09-03T22:45:11.852Z,14.96
2022-09-03T22:48:08.313Z,14.92
2022-09-03T22:51:00.388Z,14.84
2022-09-03T22:53:48.794Z,14.85
2022-09-03T22:56:22.314Z,14.84
2022-09-03T22:59:20.540Z,14.77
2022-09-03T23:02:18.418Z,14.80
2022-09-03T23:05:28.080Z,14.74
2022-09-03T23:08:06.742Z,14.73
2022-09-03T23:11:14.631Z,14.64
2022-09-03T23:14:03.714Z,14.69
2022-09-03T23:16:52.820Z,14.71
2022-09-03T23:21:56.936Z,14.64
2022-09-03T23:24:35.672Z,14.64
2022-09-03T23:27:08.960Z,14.64
2022-09-03T23:29:53.014Z,14.63
2022-09-03T23:32:20.494Z,14.61
2022-09-03T23:34:48.028Z,14.56
2022-09-03T23:37:58.804Z,14.55
2022-09-03T23:40:45.351Z,14.52
2022-09-03T23:43:35.601Z,14.53
2022-09-03T23:46:08.635Z,14.53
2022-09-03T23:49:12.922Z,14.51
2022-09-03T23:51:58.953Z,14.54
2022-09-03T23:54:42.326Z,14.53
2022-09-03T23:57:46.053Z,14.50
